createdAt,value
2024-02-14T00:00:21.905Z,0.70
2024-02-14T00:02:51.588Z,0.70
2024-02-14T00:05:19.103Z,0.60
2024-02-14T00:07:46.008Z,0.70
2024-02-14T00:10:12.749Z,0.70
2024-02-14T00:12:39.545Z,0.70
2024-02-14T00:15:08.766Z,0.80
2024-02-14T00:17:36.428Z,0.70
2024-02-14T00:20:04.596Z,0.80
2024-02-14T00:22:33.809Z,0.70
2024-02-14T00:25:01.122Z,0.68
2024-02-14T00:27:28.290Z,0.70
2024-02-14T00:29:55.992Z,0.70
2024-02-14T00:32:23.504Z,0.70
2024-02-14T00:34:51.497Z,0.65
2024-02-14T00:37:18.461Z,0.70
2024-02-14T00:39:45.175Z,0.70
2024-02-14T00:42:12.158Z,0.70
2024-02-14T00:44:39.019Z,0.70
2024-02-14T00:47:05.936Z,0.70
2024-02-14T00:49:36.177Z,0.60
2024-02-14T00:52:03.405Z,0.60
2024-02-14T00:54:30.081Z,0.80
2024-02-14T00:56:56.849Z,0.80
2024-02-14T00:59:23.734Z,0.68
2024-02-14T01:01:50.469Z,0.70
2024-02-14T01:04:18.386Z,0.70
2024-02-14T01:06:45.673Z,0.70
2024-02-14T01:09:12.444Z,0.70
2024-02-14T01:11:39.760Z,0.70
2024-02-14T01:14:06.877Z,0.70
2024-02-14T01:16:33.563Z,0.73
2024-02-14T01:19:00.584Z,0.70
2024-02-14T01:21:27.577Z,0.70
2024-02-14T01:23:54.349Z,0.70
2024-02-14T01:26:22.089Z,0.80
2024-02-14T01:28:49.603Z,0.70
2024-02-14T01:31:16.678Z,0.80
2024-02-14T01:33:45.111Z,0.70
2024-02-14T01:36:12.097Z,0.70
2024-02-14T01:38:38.964Z,0.70
2024-02-14T01:41:06.800Z,0.60
2024-02-14T01:43:33.572Z,0.70
2024-02-14T01:46:07.793Z,0.63
2024-02-14T01:48:40.853Z,0.60
2024-02-14T01:51:10.230Z,0.70
2024-02-14T01:53:41.135Z,0.70
2024-02-14T01:56:08.413Z,0.70
2024-02-14T01:58:35.801Z,0.70
2024-02-14T02:01:04.065Z,0.70
2024-02-14T02:03:36.841Z,0.70
2024-02-14T02:06:04.751Z,0.65
2024-02-14T02:08:31.757Z,0.70
2024-02-14T02:10:58.575Z,0.70
2024-02-14T02:13:26.952Z,0.70
2024-02-14T02:15:54.648Z,0.70
2024-02-14T02:18:21.550Z,0.70
2024-02-14T02:20:48.745Z,0.70
2024-02-14T02:23:18.425Z,0.70
2024-02-14T02:25:45.375Z,0.65
2024-02-14T02:28:12.352Z,0.63
2024-02-14T02:30:39.437Z,0.70
2024-02-14T02:33:07.326Z,0.65
2024-02-14T02:35:35.568Z,0.70
2024-02-14T02:38:02.516Z,0.70
2024-02-14T02:40:29.337Z,0.70
2024-02-14T02:42:56.063Z,0.70
2024-02-14T02:45:22.946Z,0.70
2024-02-14T02:47:52.915Z,0.77
2024-02-14T02:50:21.172Z,0.77
2024-02-14T02:52:48.512Z,0.70
2024-02-14T02:55:18.605Z,0.63
2024-02-14T02:57:46.739Z,0.70
2024-02-14T03:00:14.698Z,0.75
2024-02-14T03:02:46.331Z,0.70
2024-02-14T03:05:19.829Z,0.70
2024-02-14T03:07:49.009Z,0.70
2024-02-14T03:10:19.084Z,0.70
2024-02-14T03:12:49.781Z,0.70
2024-02-14T03:15:17.483Z,0.70
2024-02-14T03:17:44.366Z,0.60
2024-02-14T03:20:16.754Z,0.70
2024-02-14T03:22:49.079Z,0.70
2024-02-14T03:25:20.593Z,0.70
2024-02-14T03:27:50.704Z,0.70
2024-02-14T03:30:18.957Z,0.70
2024-02-14T03:32:46.542Z,0.68
2024-02-14T03:35:17.391Z,0.70
2024-02-14T03:37:48.908Z,0.70
2024-02-14T03:40:16.198Z,0.70
2024-02-14T03:42:43.115Z,0.70
2024-02-14T03:45:10.622Z,0.70
2024-02-14T03:47:46.545Z,0.70
2024-02-14T03:50:13.530Z,0.60
2024-02-14T03:52:40.286Z,0.70
2024-02-14T03:55:07.465Z,0.70
2024-02-14T03:57:36.630Z,0.70
2024-02-14T04:00:04.339Z,0.70
2024-02-14T04:02:32.962Z,0.70
2024-02-14T04:05:00.051Z,0.70
2024-02-14T04:07:27.281Z,0.60
2024-02-14T04:09:53.977Z,0.70
2024-02-14T04:12:20.774Z,0.70
2024-02-14T04:14:47.497Z,0.70
2024-02-14T04:17:14.956Z,0.70
2024-02-14T04:19:41.755Z,0.70
2024-02-14T04:22:09.429Z,0.68
2024-02-14T04:24:36.651Z,0.65
2024-02-14T04:27:05.724Z,0.70
2024-02-14T04:29:34.916Z,0.70
2024-02-14T04:32:03.555Z,0.70
2024-02-14T04:34:31.414Z,0.70
2024-02-14T04:36:58.956Z,0.60
2024-02-14T04:39:25.878Z,0.65
2024-02-14T04:41:57.792Z,0.70
2024-02-14T04:44:32.750Z,0.70
2024-02-14T04:47:00.230Z,0.70
2024-02-14T04:49:28.184Z,0.70
2024-02-14T04:51:56.141Z,0.73
2024-02-14T04:54:22.952Z,0.70
2024-02-14T04:56:52.488Z,0.70
2024-02-14T04:59:22.208Z,0.70
2024-02-14T05:01:49.097Z,0.60
2024-02-14T05:04:17.941Z,0.73
2024-02-14T05:06:44.996Z,0.70
2024-02-14T05:09:12.027Z,0.60
2024-02-14T05:11:39.019Z,0.65
2024-02-14T05:14:05.849Z,0.70
2024-02-14T05:16:32.556Z,0.70
2024-02-14T05:18:59.600Z,0.70
2024-02-14T05:21:26.432Z,0.70
2024-02-14T05:23:53.242Z,0.80
2024-02-14T05:26:20.134Z,0.80
2024-02-14T05:28:47.578Z,0.68
2024-02-14T05:31:14.307Z,0.70
2024-02-14T05:33:41.530Z,0.70
2024-02-14T05:36:08.635Z,0.70
2024-02-14T05:38:35.642Z,0.73
2024-02-14T05:41:02.570Z,0.70
2024-02-14T05:43:29.289Z,0.80
2024-02-14T05:45:56.666Z,0.70
2024-02-14T05:48:23.800Z,0.70
2024-02-14T05:50:50.892Z,0.70
2024-02-14T05:53:17.711Z,0.70
2024-02-14T05:55:44.745Z,0.70
2024-02-14T05:58:11.962Z,0.70
2024-02-14T06:00:39.831Z,0.70
2024-02-14T06:03:08.101Z,0.70
2024-02-14T06:05:36.497Z,0.70
2024-02-14T06:08:04.361Z,0.80
2024-02-14T06:10:31.273Z,0.70
2024-02-14T06:12:58.085Z,0.70
2024-02-14T06:15:24.919Z,0.80
2024-02-14T06:17:51.995Z,0.80
2024-02-14T06:20:19.165Z,0.80
2024-02-14T06:22:53.238Z,0.75
2024-02-14T06:25:24.271Z,0.70
2024-02-14T06:27:51.077Z,0.80
2024-02-14T06:30:18.749Z,0.80
2024-02-14T06:32:46.278Z,0.70
2024-02-14T06:35:16.491Z,0.77
2024-02-14T06:37:48.906Z,0.80
2024-02-14T06:40:23.575Z,0.77
2024-02-14T06:42:53.160Z,0.80
2024-02-14T06:45:19.999Z,0.80
2024-02-14T06:47:46.863Z,0.80
2024-02-14T06:50:13.603Z,0.80
2024-02-14T06:52:40.380Z,0.80
2024-02-14T06:55:07.456Z,0.80
2024-02-14T06:57:34.248Z,0.80
2024-02-14T07:00:01.185Z,0.90
2024-02-14T07:02:29.441Z,0.80
2024-02-14T07:04:56.340Z,0.77
2024-02-14T07:07:23.392Z,0.80
2024-02-14T07:09:50.217Z,0.80
2024-02-14T07:12:17.036Z,0.75
2024-02-14T07:14:43.878Z,0.73
2024-02-14T07:17:10.654Z,0.80
2024-02-14T07:19:37.762Z,0.80
2024-02-14T07:22:05.048Z,0.80
2024-02-14T07:24:31.821Z,0.80
2024-02-14T07:26:59.041Z,0.80
2024-02-14T07:29:26.825Z,0.80
2024-02-14T07:31:53.731Z,0.88
2024-02-14T07:34:21.114Z,0.80
2024-02-14T07:36:47.969Z,0.80
2024-02-14T07:39:14.989Z,0.80
2024-02-14T07:41:41.897Z,0.80
2024-02-14T07:44:08.871Z,0.80
2024-02-14T07:46:35.630Z,0.80
2024-02-14T07:49:02.529Z,0.80
2024-02-14T07:51:30.516Z,0.80
2024-02-14T07:53:57.365Z,0.80
2024-02-14T07:56:24.113Z,0.70
2024-02-14T07:58:51.318Z,0.90
2024-02-14T08:01:18.161Z,0.90
2024-02-14T08:03:47.230Z,0.80
2024-02-14T08:06:14.880Z,0.90
2024-02-14T08:08:41.993Z,0.85
2024-02-14T08:11:08.765Z,0.90
2024-02-14T08:13:35.823Z,0.80
2024-02-14T08:16:02.635Z,0.85
2024-02-14T08:18:29.679Z,0.80
2024-02-14T08:20:56.651Z,0.88
2024-02-14T08:23:23.712Z,0.90
2024-02-14T08:25:50.498Z,0.80
2024-02-14T08:28:19.392Z,0.90
2024-02-14T08:30:46.237Z,0.90
2024-02-14T08:33:13.226Z,0.90
2024-02-14T08:35:43.568Z,0.90
2024-02-14T08:38:11.380Z,0.90
2024-02-14T08:40:38.296Z,0.90
2024-02-14T08:43:06.118Z,0.90
2024-02-14T08:45:33.077Z,0.80
2024-02-14T08:48:00.082Z,0.80
2024-02-14T08:50:26.919Z,0.90
2024-02-14T08:52:53.658Z,0.90
2024-02-14T08:55:20.521Z,0.90
2024-02-14T08:57:49.522Z,0.90
2024-02-14T09:00:21.186Z,1.00
2024-02-14T09:02:48.835Z,0.90
2024-02-14T09:05:15.868Z,1.00
2024-02-14T09:07:43.161Z,1.00
2024-02-14T09:10:11.734Z,0.90
2024-02-14T09:12:38.765Z,0.90
2024-02-14T09:15:06.664Z,0.90
2024-02-14T09:17:33.890Z,0.90
2024-02-14T09:20:01.388Z,1.02
2024-02-14T09:22:28.224Z,0.90
2024-02-14T09:24:54.975Z,0.90
2024-02-14T09:27:21.886Z,0.90
2024-02-14T09:29:48.685Z,0.90
2024-02-14T09:32:15.508Z,0.85
2024-02-14T09:34:42.462Z,0.80
2024-02-14T09:37:10.591Z,0.80
2024-02-14T09:39:38.121Z,0.90
2024-02-14T09:42:10.567Z,0.90
2024-02-14T09:44:39.436Z,0.80
2024-02-14T09:47:07.298Z,0.88
2024-02-14T09:49:38.034Z,0.75
2024-02-14T09:52:06.414Z,0.80
2024-02-14T09:54:36.519Z,0.90
2024-02-14T09:57:03.846Z,0.80
2024-02-14T09:59:32.225Z,0.80
2024-02-14T10:01:59.315Z,0.80
2024-02-14T10:04:27.041Z,1.00
2024-02-14T10:06:54.076Z,0.80
2024-02-14T10:09:24.581Z,0.90
2024-02-14T10:11:51.375Z,0.80
2024-02-14T10:14:18.288Z,0.90
2024-02-14T10:16:46.753Z,0.90
2024-02-14T10:19:20.121Z,0.90
2024-02-14T10:24:32.053Z,0.85
2024-02-14T10:27:02.039Z,0.90
2024-02-14T10:29:29.150Z,0.82
2024-02-14T10:31:55.895Z,1.00
2024-02-14T10:34:29.013Z,1.00
2024-02-14T10:36:58.910Z,1.00
2024-02-14T10:39:26.974Z,1.10
2024-02-14T10:41:54.407Z,1.20
2024-02-14T10:44:21.540Z,1.20
2024-02-14T10:46:53.789Z,1.00
2024-02-14T10:49:22.450Z,1.10
2024-02-14T10:51:51.798Z,1.10
2024-02-14T10:54:21.186Z,1.30
2024-02-14T10:56:53.842Z,1.20
2024-02-14T10:59:25.401Z,1.20
2024-02-14T11:01:52.781Z,1.00
2024-02-14T11:04:20.249Z,1.10
2024-02-14T11:06:54.876Z,1.13
2024-02-14T11:09:21.836Z,1.10
2024-02-14T11:11:49.062Z,1.00
2024-02-14T11:14:24.613Z,1.00
2024-02-14T11:16:53.762Z,1.00
2024-02-14T11:19:21.533Z,1.05
2024-02-14T11:21:50.211Z,1.10
2024-02-14T11:24:17.785Z,1.00
2024-02-14T11:26:50.342Z,1.10
2024-02-14T11:29:21.301Z,1.17
2024-02-14T11:31:51.227Z,1.20
2024-02-14T11:34:18.489Z,1.15
2024-02-14T11:36:46.420Z,1.30
2024-02-14T11:39:13.346Z,1.10
2024-02-14T11:41:40.222Z,1.25
2024-02-14T11:44:07.102Z,1.20
2024-02-14T11:46:38.036Z,1.27
2024-02-14T11:49:06.334Z,1.30
2024-02-14T11:51:36.881Z,1.40
2024-02-14T11:54:06.314Z,1.30
2024-02-14T11:56:37.754Z,1.33
2024-02-14T11:59:06.472Z,1.40
2024-02-14T12:01:35.795Z,1.30
2024-02-14T12:04:04.692Z,1.30
2024-02-14T12:06:33.624Z,1.30
2024-02-14T12:09:06.652Z,1.25
2024-02-14T12:11:34.733Z,1.40
2024-02-14T12:14:06.392Z,1.38
2024-02-14T12:16:37.290Z,1.30
2024-02-14T12:19:18.341Z,1.40
2024-02-14T12:21:45.766Z,1.20
2024-02-14T12:24:16.830Z,1.10
2024-02-14T12:26:44.310Z,1.10
2024-02-14T12:29:14.498Z,1.20
2024-02-14T12:31:41.597Z,1.10
2024-02-14T12:34:08.660Z,1.00
2024-02-14T12:36:35.923Z,0.90
2024-02-14T12:39:03.845Z,0.95
2024-02-14T12:41:36.598Z,0.90
2024-02-14T12:44:03.547Z,0.95
2024-02-14T12:46:30.908Z,0.90
2024-02-14T12:48:58.122Z,0.90
2024-02-14T12:51:30.148Z,0.90
2024-02-14T12:53:57.423Z,1.00
2024-02-14T12:56:25.091Z,0.82
2024-02-14T12:58:51.961Z,0.90
2024-02-14T13:01:19.493Z,0.80
2024-02-14T13:03:46.822Z,0.90
2024-02-14T13:06:15.620Z,0.80
2024-02-14T13:08:43.218Z,0.80
2024-02-14T13:11:10.401Z,0.80
2024-02-14T13:13:37.921Z,0.90
2024-02-14T13:16:07.696Z,0.80
2024-02-14T13:18:36.492Z,0.85
2024-02-14T13:21:03.806Z,0.80
2024-02-14T13:23:31.379Z,0.80
2024-02-14T13:25:58.494Z,0.80
2024-02-14T13:28:25.769Z,0.80
2024-02-14T13:30:54.478Z,0.93
2024-02-14T13:33:23.601Z,0.80
2024-02-14T13:35:50.466Z,0.88
2024-02-14T13:38:18.538Z,0.90
2024-02-14T13:40:45.445Z,0.85
2024-02-14T13:43:14.675Z,0.80
2024-02-14T13:45:44.906Z,0.80
2024-02-14T13:48:12.558Z,0.80
2024-02-14T13:50:39.768Z,0.70
2024-02-14T13:53:07.955Z,0.80
2024-02-14T13:55:34.825Z,0.90
2024-02-14T13:58:01.806Z,0.85
2024-02-14T14:00:28.709Z,0.80
2024-02-14T14:02:56.740Z,0.80
2024-02-14T14:05:23.734Z,0.77
2024-02-14T14:07:57.955Z,0.77
2024-02-14T14:10:27.645Z,0.80
2024-02-14T14:12:56.129Z,0.70
2024-02-14T14:15:24.028Z,0.80
2024-02-14T14:17:51.896Z,0.80
2024-02-14T14:20:20.697Z,0.80
2024-02-14T14:22:49.788Z,0.80
2024-02-14T14:25:16.828Z,0.80
2024-02-14T14:27:44.299Z,0.90
2024-02-14T14:30:12.785Z,0.90
2024-02-14T14:32:41.735Z,0.82
2024-02-14T14:35:11.870Z,0.80
2024-02-14T14:37:39.299Z,0.80
2024-02-14T14:40:06.881Z,0.80
2024-02-14T14:42:33.718Z,0.90
2024-02-14T14:45:00.840Z,0.90
2024-02-14T14:47:27.762Z,1.00
2024-02-14T14:49:55.000Z,0.80
2024-02-14T14:52:21.894Z,0.80
2024-02-14T14:54:48.748Z,0.90
2024-02-14T14:57:16.719Z,0.82
2024-02-14T14:59:44.664Z,0.82
2024-02-14T15:02:11.984Z,0.80
2024-02-14T15:04:41.385Z,0.80
2024-02-14T15:07:08.525Z,0.80
2024-02-14T15:09:38.005Z,0.80
2024-02-14T15:12:09.284Z,0.70
2024-02-14T15:14:36.190Z,0.70
2024-02-14T15:17:03.001Z,0.80
2024-02-14T15:19:29.762Z,0.70
2024-02-14T15:21:56.528Z,0.70
2024-02-14T15:24:24.009Z,0.70
2024-02-14T15:26:51.168Z,0.70
2024-02-14T15:29:38.241Z,0.70
2024-02-14T15:32:24.092Z,0.60
2024-02-14T15:34:51.063Z,0.77
2024-02-14T15:37:19.047Z,0.63
2024-02-14T15:39:46.127Z,0.70
2024-02-14T15:42:13.414Z,0.70
2024-02-14T15:44:40.620Z,0.70
2024-02-14T15:47:08.927Z,0.80
2024-02-14T15:49:36.694Z,0.77
2024-02-14T15:52:03.944Z,0.70
2024-02-14T15:54:30.747Z,0.80
2024-02-14T15:56:57.629Z,0.80
2024-02-14T15:59:24.433Z,0.70
2024-02-14T16:01:51.226Z,0.80
2024-02-14T16:04:17.999Z,0.80
2024-02-14T16:06:44.896Z,0.70
2024-02-14T16:09:11.833Z,0.70
2024-02-14T16:11:38.694Z,0.77
2024-02-14T16:14:05.404Z,0.70
2024-02-14T16:16:32.973Z,0.80
2024-02-14T16:19:04.016Z,0.70
2024-02-14T16:21:30.938Z,0.80
2024-02-14T16:23:57.713Z,0.80
2024-02-14T16:26:27.004Z,0.70
2024-02-14T16:28:55.169Z,0.80
2024-02-14T16:31:22.871Z,0.80
2024-02-14T16:33:49.869Z,0.80
2024-02-14T16:36:16.704Z,0.70
2024-02-14T16:38:43.959Z,0.80
2024-02-14T16:41:11.565Z,0.80
2024-02-14T16:43:39.104Z,0.80
2024-02-14T16:46:05.976Z,0.70
2024-02-14T16:48:33.055Z,0.70
2024-02-14T16:50:59.854Z,0.80
2024-02-14T16:53:26.625Z,0.80
2024-02-14T16:55:53.313Z,0.80
2024-02-14T16:58:20.145Z,0.80
2024-02-14T17:00:47.018Z,0.80
2024-02-14T17:03:16.973Z,0.80
2024-02-14T17:05:47.242Z,0.80
2024-02-14T17:08:14.214Z,0.80
2024-02-14T17:10:41.153Z,0.80
2024-02-14T17:13:08.623Z,0.77
2024-02-14T17:15:36.251Z,0.80
2024-02-14T17:18:04.267Z,0.80
2024-02-14T17:20:32.293Z,0.80
2024-02-14T17:22:59.137Z,0.73
2024-02-14T17:25:25.995Z,0.80
2024-02-14T17:27:53.295Z,0.77
2024-02-14T17:30:21.759Z,0.80
2024-02-14T17:32:49.946Z,0.80
2024-02-14T17:35:17.480Z,0.70
2024-02-14T17:37:44.382Z,0.80
2024-02-14T17:40:13.078Z,0.80
2024-02-14T17:42:39.907Z,0.80
2024-02-14T17:45:07.638Z,0.80
2024-02-14T17:47:35.320Z,0.73
2024-02-14T17:50:04.318Z,0.70
2024-02-14T17:52:31.299Z,0.80
2024-02-14T17:54:58.866Z,0.70
2024-02-14T17:57:26.259Z,0.70
2024-02-14T17:59:53.738Z,0.70
2024-02-14T18:02:21.355Z,0.70
2024-02-14T18:04:48.314Z,0.80
2024-02-14T18:07:15.520Z,0.70
2024-02-14T18:09:42.418Z,0.80
2024-02-14T18:12:10.008Z,0.80
2024-02-14T18:14:36.928Z,0.80
2024-02-14T18:17:04.267Z,0.80
2024-02-14T18:19:31.288Z,0.70
2024-02-14T18:21:58.242Z,0.70
2024-02-14T18:24:25.150Z,0.80
2024-02-14T18:26:52.094Z,0.80
2024-02-14T18:29:19.022Z,0.70
2024-02-14T18:31:48.957Z,0.70
2024-02-14T18:34:16.208Z,0.80
2024-02-14T18:36:43.224Z,0.80
2024-02-14T18:39:10.711Z,0.70
2024-02-14T18:41:38.225Z,0.80
2024-02-14T18:44:06.808Z,0.80
2024-02-14T18:46:34.063Z,0.80
2024-02-14T18:49:01.300Z,0.80
2024-02-14T18:51:28.515Z,0.70
2024-02-14T18:53:56.547Z,0.80
2024-02-14T18:56:24.600Z,0.70
2024-02-14T18:58:51.552Z,0.70
2024-02-14T19:01:26.919Z,0.70
2024-02-14T19:03:57.533Z,0.80
2024-02-14T19:06:26.303Z,0.73
2024-02-14T19:08:53.377Z,0.70
2024-02-14T19:11:20.539Z,0.80
2024-02-14T19:13:47.488Z,0.80
2024-02-14T19:16:24.109Z,0.80
2024-02-14T19:18:56.013Z,0.77
2024-02-14T19:21:23.654Z,0.80
2024-02-14T19:23:50.972Z,0.80
2024-02-14T19:26:20.378Z,0.70
2024-02-14T19:28:47.725Z,0.80
2024-02-14T19:31:14.920Z,0.80
2024-02-14T19:33:48.558Z,0.80
2024-02-14T19:36:15.731Z,0.80
2024-02-14T19:38:42.782Z,0.70
2024-02-14T19:41:09.760Z,0.80
2024-02-14T19:43:40.049Z,0.75
2024-02-14T19:46:07.909Z,0.70
2024-02-14T19:48:36.546Z,0.70
2024-02-14T19:51:04.802Z,0.70
2024-02-14T19:53:32.756Z,0.70
2024-02-14T19:56:00.358Z,0.70
2024-02-14T19:58:27.865Z,0.80
2024-02-14T20:00:55.246Z,0.80
2024-02-14T20:03:22.620Z,0.75
2024-02-14T20:05:50.315Z,0.73
2024-02-14T20:08:19.671Z,0.70
2024-02-14T20:10:47.104Z,0.80
2024-02-14T20:13:14.614Z,0.77
2024-02-14T20:15:48.087Z,0.70
2024-02-14T20:20:44.408Z,0.70
2024-02-14T20:23:14.455Z,0.70
2024-02-14T20:25:44.048Z,0.80
2024-02-14T20:28:11.359Z,0.80
2024-02-14T20:30:38.430Z,0.70
2024-02-14T20:33:06.059Z,0.70
2024-02-14T20:35:38.303Z,0.70
2024-02-14T20:38:13.712Z,0.70
2024-02-14T20:40:41.799Z,0.70
2024-02-14T20:43:08.880Z,0.80
2024-02-14T20:45:36.612Z,0.80
2024-02-14T20:48:04.367Z,0.70
2024-02-14T20:50:31.596Z,0.70
2024-02-14T20:53:01.746Z,0.70
2024-02-14T20:55:32.559Z,0.70
2024-02-14T20:58:01.433Z,0.70
2024-02-14T21:00:29.523Z,0.70
2024-02-14T21:02:56.353Z,0.80
2024-02-14T21:05:23.660Z,0.80
2024-02-14T21:07:50.586Z,0.80
2024-02-14T21:10:19.902Z,0.70
2024-02-14T21:12:47.938Z,0.80
2024-02-14T21:15:14.856Z,0.75
2024-02-14T21:17:41.904Z,0.80
2024-02-14T21:20:09.331Z,0.80
2024-02-14T21:22:37.154Z,0.80
2024-02-14T21:25:04.916Z,0.80
2024-02-14T21:27:31.683Z,0.80
2024-02-14T21:29:58.517Z,0.80
2024-02-14T21:32:26.928Z,0.70
2024-02-14T21:34:53.847Z,0.70
2024-02-14T21:37:20.760Z,0.70
2024-02-14T21:39:48.872Z,0.80
2024-02-14T21:42:15.780Z,0.80
2024-02-14T21:44:43.630Z,0.80
2024-02-14T21:47:11.674Z,0.77
2024-02-14T21:49:39.876Z,0.80
2024-02-14T21:52:08.526Z,0.70
2024-02-14T21:54:36.054Z,0.70
2024-02-14T21:57:05.268Z,0.70
2024-02-14T21:59:32.133Z,0.60
2024-02-14T22:01:59.238Z,0.80
2024-02-14T22:04:26.034Z,0.60
2024-02-14T22:06:53.179Z,0.60
2024-02-14T22:09:22.247Z,0.70
2024-02-14T22:11:49.489Z,0.70
2024-02-14T22:14:16.309Z,0.80
2024-02-14T22:16:43.426Z,0.70
2024-02-14T22:19:11.988Z,0.70
2024-02-14T22:21:38.839Z,0.70
2024-02-14T22:24:07.116Z,0.70
2024-02-14T22:26:33.921Z,0.70
2024-02-14T22:29:00.657Z,0.70
2024-02-14T22:31:30.323Z,0.70
2024-02-14T22:33:57.835Z,0.70
2024-02-14T22:36:25.682Z,0.70
2024-02-14T22:38:52.890Z,0.70
2024-02-14T22:41:22.960Z,0.65
2024-02-14T22:43:54.031Z,0.60
2024-02-14T22:46:21.037Z,0.70
2024-02-14T22:48:48.324Z,0.70
2024-02-14T22:51:15.942Z,0.63
2024-02-14T22:53:42.891Z,0.65
2024-02-14T22:56:13.110Z,0.70
2024-02-14T22:58:40.066Z,0.70
2024-02-14T23:01:06.947Z,0.60
2024-02-14T23:03:33.900Z,0.70
2024-02-14T23:06:03.585Z,0.70
2024-02-14T23:08:30.539Z,0.65
2024-02-14T23:10:57.361Z,0.68
2024-02-14T23:13:24.100Z,0.68
2024-02-14T23:15:53.136Z,0.70
2024-02-14T23:18:21.701Z,0.70
2024-02-14T23:20:48.725Z,0.70
2024-02-14T23:23:15.478Z,0.60
2024-02-14T23:25:42.242Z,0.60
2024-02-14T23:28:09.088Z,0.60
2024-02-14T23:30:36.379Z,0.60
2024-02-14T23:33:03.595Z,0.60
2024-02-14T23:35:30.497Z,0.60
2024-02-14T23:37:57.670Z,0.60
2024-02-14T23:40:24.512Z,0.60
2024-02-14T23:42:51.322Z,0.60
2024-02-14T23:45:19.652Z,0.60
2024-02-14T23:47:46.615Z,0.60
2024-02-14T23:50:13.839Z,0.60
2024-02-14T23:52:42.339Z,0.60
2024-02-14T23:55:10.841Z,0.60
2024-02-14T23:57:37.606Z,0.60
